Time;durP1;ratioP1;P1;durP2;ratioP2;P2;SDS_P1;SDS_P2;PMS_P1;PMS_P2;Temp;Humidity;BMP_temperature;BMP_pressure;BME280_temperature;BME280_humidity;BME280_pressure;Samples;Min_cycle;Max_cycle;Signal;HPM_P1;HPM_P2
2021/07/12 00:00:43;;;;;;;2.92;2.53;;;21.60;99.70;;;;;;5072205;28;20442;-76
2021/07/12 00:03:08;;;;;;;3.00;2.55;;;21.60;99.80;;;;;;5071525;28;20027;-77
2021/07/12 00:05:35;;;;;;;3.45;2.65;;;21.60;99.70;;;;;;5074541;28;20024;-77
2021/07/12 00:08:00;;;;;;;2.65;2.30;;;21.60;99.70;;;;;;5074560;28;20047;-77
2021/07/12 00:10:28;;;;;;;3.65;2.90;;;21.60;99.70;;;;;;5074401;28;20033;-76
2021/07/12 00:12:54;;;;;;;3.20;2.58;;;21.60;99.90;;;;;;5074340;28;20038;-78
2021/07/12 00:15:22;;;;;;;2.72;2.40;;;21.60;99.90;;;;;;5073679;28;20412;-78
2021/07/12 00:17:47;;;;;;;3.20;2.47;;;21.60;99.90;;;;;;5073764;28;20102;-78
2021/07/12 00:20:15;;;;;;;3.58;2.63;;;21.60;99.90;;;;;;5073911;28;20485;-78
2021/07/12 00:22:41;;;;;;;4.60;2.90;;;21.60;99.90;;;;;;5073990;28;20056;-78
2021/07/12 00:25:08;;;;;;;3.33;3.03;;;21.60;99.90;;;;;;5074036;28;20059;-79
2021/07/12 00:27:35;;;;;;;3.75;3.25;;;21.60;99.90;;;;;;5073781;28;20411;-77
2021/07/12 00:30:01;;;;;;;2.83;2.45;;;21.60;99.90;;;;;;5073080;28;20028;-79
2021/07/12 00:32:27;;;;;;;3.33;3.03;;;21.50;99.90;;;;;;5072257;28;20489;-79
2021/07/12 00:34:53;;;;;;;4.03;2.55;;;21.60;99.90;;;;;;5073269;28;20049;-78
2021/07/12 00:37:18;;;;;;;3.83;2.95;;;21.60;99.90;;;;;;5073909;28;20079;-75
2021/07/12 00:39:44;;;;;;;3.15;2.60;;;21.60;99.90;;;;;;5072458;28;20029;-76
2021/07/12 00:42:10;;;;;;;3.10;2.55;;;21.60;99.90;;;;;;5073396;28;20055;-77
2021/07/12 00:44:36;;;;;;;5.03;2.40;;;21.60;99.90;;;;;;5074385;28;20059;-77
2021/07/12 00:47:04;;;;;;;3.45;2.97;;;21.50;99.90;;;;;;5073661;28;20024;-77
2021/07/12 00:49:29;;;;;;;4.28;2.75;;;21.60;99.90;;;;;;5073481;28;20020;-77
2021/07/12 00:51:55;;;;;;;3.08;2.70;;;21.60;99.90;;;;;;5073411;28;20032;-78
2021/07/12 00:54:27;;;;;;;2.70;2.40;;;21.50;99.90;;;;;;5072413;28;20029;-76
2021/07/12 00:56:54;;;;;;;3.78;2.53;;;21.60;99.90;;;;;;5071815;28;20072;-77
2021/07/12 00:59:20;;;;;;;3.08;2.35;;;21.50;99.90;;;;;;5073455;28;20063;-76
2021/07/12 01:01:46;;;;;;;3.00;2.63;;;21.50;99.90;;;;;;5072814;28;20022;-77
2021/07/12 01:04:12;;;;;;;3.08;2.65;;;21.50;99.90;;;;;;5072327;28;20017;-76
2021/07/12 01:06:37;;;;;;;3.38;2.75;;;21.50;99.90;;;;;;5073770;28;20162;-77
2021/07/12 01:09:04;;;;;;;3.30;2.90;;;21.50;99.90;;;;;;5073881;28;20498;-76
2021/07/12 01:11:52;;;;;;;2.55;2.33;;;21.50;99.90;;;;;;5072858;28;20031;-77
2021/07/12 01:14:42;;;;;;;3.33;2.70;;;21.50;99.90;;;;;;5072578;28;20028;-77
2021/07/12 01:17:26;;;;;;;3.10;2.50;;;21.50;99.90;;;;;;5072775;28;20033;-77
2021/07/12 01:20:33;;;;;;;3.53;2.80;;;21.50;99.90;;;;;;5063236;28;20021;-78
2021/07/12 01:23:17;;;;;;;4.88;3.20;;;21.50;99.90;;;;;;5072967;28;20038;-76
2021/07/12 01:25:55;;;;;;;3.38;2.75;;;21.50;99.90;;;;;;5053180;28;20116;-76
2021/07/12 01:28:26;;;;;;;2.78;2.28;;;21.50;99.90;;;;;;5063475;28;20071;-78
2021/07/12 01:31:20;;;;;;;3.97;2.63;;;21.50;99.90;;;;;;5071375;28;20029;-77
2021/07/12 01:34:03;;;;;;;4.07;2.88;;;21.50;99.90;;;;;;5072412;28;20124;-77
2021/07/12 01:36:38;;;;;;;3.13;2.80;;;21.50;99.90;;;;;;5071780;28;20032;-76
2021/07/12 01:39:04;;;;;;;3.38;2.83;;;21.50;99.90;;;;;;5072980;28;20033;-77
2021/07/12 01:41:35;;;;;;;3.25;2.72;;;21.50;99.90;;;;;;5070944;28;20399;-76
2021/07/12 01:44:07;;;;;;;3.08;2.75;;;21.40;99.90;;;;;;5072542;28;20068;-76
2021/07/12 01:46:35;;;;;;;3.10;2.72;;;21.40;99.90;;;;;;5071057;28;20020;-77
2021/07/12 01:49:12;;;;;;;3.88;3.05;;;21.50;99.90;;;;;;5070680;28;20032;-75
2021/07/12 01:52:12;;;;;;;2.88;2.45;;;21.50;99.90;;;;;;5072833;28;20040;-77
2021/07/12 01:55:00;;;;;;;2.65;2.15;;;21.40;99.90;;;;;;5071927;28;20055;-77
2021/07/12 01:57:38;;;;;;;3.47;2.97;;;21.50;99.90;;;;;;5070750;28;20046;-77
2021/07/12 02:00:13;;;;;;;3.30;2.55;;;21.50;99.90;;;;;;5072556;28;20047;-77
2021/07/12 02:02:43;;;;;;;2.30;2.08;;;21.40;99.90;;;;;;5071864;28;20024;-77
2021/07/12 02:05:16;;;;;;;3.13;2.38;;;21.40;99.90;;;;;;5071227;28;20036;-76
2021/07/12 02:07:43;;;;;;;2.63;2.17;;;21.40;99.90;;;;;;5072009;28;20016;-77
2021/07/12 02:10:10;;;;;;;3.08;2.78;;;21.40;99.90;;;;;;5072210;28;20028;-77
2021/07/12 02:12:37;;;;;;;3.47;2.63;;;21.40;99.90;;;;;;5071788;28;20025;-78
2021/07/12 02:15:06;;;;;;;3.13;2.50;;;21.40;99.90;;;;;;5052801;28;20485;-78
2021/07/12 02:17:32;;;;;;;3.53;2.92;;;21.40;99.90;;;;;;5051966;28;20013;-76
2021/07/12 02:20:04;;;;;;;3.63;2.80;;;21.40;99.90;;;;;;5052208;28;20174;-75
2021/07/12 02:22:34;;;;;;;3.40;2.55;;;21.40;99.90;;;;;;5051809;28;20477;-76
2021/07/12 02:25:02;;;;;;;3.67;2.50;;;21.40;99.90;;;;;;5052089;28;20028;-76
2021/07/12 02:27:31;;;;;;;4.97;2.72;;;21.40;99.90;;;;;;5068009;28;20120;-76
2021/07/12 02:29:57;;;;;;;3.05;2.58;;;21.40;99.90;;;;;;5070582;28;20086;-77
2021/07/12 02:32:24;;;;;;;3.70;2.78;;;21.40;99.90;;;;;;5071713;28;20021;-75
2021/07/12 02:34:51;;;;;;;3.38;2.95;;;21.40;99.90;;;;;;5071238;28;20044;-78
2021/07/12 02:37:18;;;;;;;3.15;2.67;;;21.40;99.90;;;;;;5070287;28;20029;-77
2021/07/12 02:39:48;;;;;;;2.53;2.15;;;21.40;99.90;;;;;;5071766;28;20020;-77
2021/07/12 02:42:14;;;;;;;3.15;2.72;;;21.40;99.90;;;;;;5071164;28;20042;-78
2021/07/12 02:44:45;;;;;;;3.15;2.42;;;21.30;99.90;;;;;;5071316;28;20036;-76
2021/07/12 02:47:11;;;;;;;3.72;2.85;;;21.30;99.90;;;;;;5071188;28;20020;-78
2021/07/12 02:49:37;;;;;;;4.30;2.83;;;21.30;99.90;;;;;;5071382;28;20579;-77
2021/07/12 02:52:14;;;;;;;2.40;2.20;;;21.30;99.90;;;;;;5071645;28;20029;-76
2021/07/12 02:54:42;;;;;;;2.70;2.33;;;21.40;99.90;;;;;;5071393;28;20044;-76
2021/07/12 02:57:08;;;;;;;3.55;2.83;;;21.30;99.90;;;;;;5070164;28;20062;-76
2021/07/12 02:59:34;;;;;;;2.90;2.25;;;21.30;99.90;;;;;;5071019;28;20544;-77
2021/07/12 03:02:00;;;;;;;3.60;2.10;;;21.30;99.90;;;;;;5070720;28;20096;-77
2021/07/12 03:04:25;;;;;;;4.18;2.25;;;21.30;99.90;;;;;;5070307;28;20031;-78
2021/07/12 03:06:52;;;;;;;3.22;2.25;;;21.30;99.90;;;;;;5071192;28;20059;-77
2021/07/12 03:09:31;;;;;;;5.93;2.83;;;21.30;99.90;;;;;;5070443;28;20098;-79
2021/07/12 03:12:13;;;;;;;3.40;2.65;;;21.30;99.90;;;;;;5070601;28;20068;-77
2021/07/12 03:15:04;;;;;;;3.38;2.03;;;21.30;99.90;;;;;;5070817;28;20115;-79
2021/07/12 03:17:34;;;;;;;3.92;2.85;;;21.30;99.90;;;;;;5070072;28;20024;-76
2021/07/12 03:20:02;;;;;;;2.88;2.22;;;21.30;99.90;;;;;;5071088;28;20029;-77
2021/07/12 03:22:29;;;;;;;4.53;2.42;;;21.30;99.90;;;;;;5070954;28;20104;-76
2021/07/12 03:24:58;;;;;;;2.92;2.53;;;21.30;99.90;;;;;;5071117;28;20093;-76
2021/07/12 03:27:24;;;;;;;2.78;2.53;;;21.30;99.90;;;;;;5068845;28;20039;-77
2021/07/12 03:29:51;;;;;;;2.40;2.08;;;21.30;99.90;;;;;;5070991;28;20451;-75
2021/07/12 03:32:26;;;;;;;3.00;2.17;;;21.30;99.90;;;;;;5069924;28;20113;-78
2021/07/12 03:34:53;;;;;;;3.42;2.65;;;21.20;99.90;;;;;;5070907;28;20412;-76
2021/07/12 03:37:20;;;;;;;4.13;2.63;;;21.30;99.90;;;;;;5070287;28;20059;-76
2021/07/12 03:39:47;;;;;;;3.97;2.50;;;21.30;99.90;;;;;;5070933;28;20381;-76
2021/07/12 03:42:14;;;;;;;3.58;2.47;;;21.30;99.90;;;;;;5070110;28;20476;-76
2021/07/12 03:44:40;;;;;;;3.05;2.22;;;21.20;99.90;;;;;;5069377;28;20052;-76
2021/07/12 03:47:06;;;;;;;3.58;2.60;;;21.30;99.90;;;;;;5070412;28;20028;-76
2021/07/12 03:49:32;;;;;;;3.38;2.33;;;21.20;99.90;;;;;;5070299;28;20028;-77
2021/07/12 03:51:59;;;;;;;3.47;2.60;;;21.30;99.90;;;;;;5070533;28;20138;-76
2021/07/12 03:54:25;;;;;;;3.03;2.70;;;21.20;99.80;;;;;;5070331;28;20063;-75
2021/07/12 03:56:50;;;;;;;2.90;2.25;;;21.20;99.80;;;;;;5070374;28;20436;-77
2021/07/12 03:59:16;;;;;;;3.20;2.65;;;21.30;99.80;;;;;;5070615;28;20028;-77
2021/07/12 04:01:42;;;;;;;3.28;2.42;;;21.20;99.80;;;;;;5070148;28;20025;-77
2021/07/12 04:04:08;;;;;;;4.35;2.83;;;21.20;99.80;;;;;;5069576;28;20032;-76
2021/07/12 04:06:34;;;;;;;3.38;2.33;;;21.20;99.80;;;;;;5070628;28;20583;-76
2021/07/12 04:09:00;;;;;;;3.47;2.38;;;21.20;99.80;;;;;;5070333;28;20420;-76
2021/07/12 04:11:32;;;;;;;2.97;2.60;;;21.20;99.80;;;;;;5070111;28;20427;-76
2021/07/12 04:13:59;;;;;;;3.40;2.65;;;21.20;99.80;;;;;;5070290;28;20554;-76
2021/07/12 04:16:25;;;;;;;3.40;2.35;;;21.20;99.70;;;;;;5068403;28;20392;-76
2021/07/12 04:18:51;;;;;;;4.15;2.80;;;21.20;99.70;;;;;;5070376;28;20054;-76
2021/07/12 04:21:17;;;;;;;5.55;2.13;;;21.20;99.70;;;;;;5070467;28;20514;-77
2021/07/12 04:23:42;;;;;;;5.50;2.58;;;21.20;99.70;;;;;;5070332;28;20028;-76
2021/07/12 04:26:08;;;;;;;3.45;2.40;;;21.20;99.80;;;;;;5070304;28;20063;-76
2021/07/12 04:28:34;;;;;;;3.75;2.78;;;21.20;99.70;;;;;;5074047;28;20036;-76
2021/07/12 04:30:59;;;;;;;5.00;2.78;;;21.20;99.70;;;;;;5073601;28;20480;-76
2021/07/12 04:33:26;;;;;;;4.05;2.55;;;21.20;99.70;;;;;;5073272;28;20435;-76
2021/07/12 04:35:53;;;;;;;2.90;2.38;;;21.20;99.70;;;;;;5073731;28;20032;-75
2021/07/12 04:38:19;;;;;;;5.03;2.25;;;21.20;99.70;;;;;;5073493;28;20020;-77
2021/07/12 04:40:45;;;;;;;4.28;2.40;;;21.20;99.60;;;;;;5072480;28;20112;-75
2021/07/12 04:43:10;;;;;;;3.28;2.10;;;21.20;99.60;;;;;;5073405;28;20104;-76
2021/07/12 04:45:36;;;;;;;2.97;2.22;;;21.20;99.60;;;;;;5072834;28;20476;-75
2021/07/12 04:48:02;;;;;;;2.88;2.30;;;21.20;99.60;;;;;;5073467;28;20111;-76
2021/07/12 04:50:28;;;;;;;3.35;2.20;;;21.20;99.60;;;;;;5073506;28;20032;-77
2021/07/12 04:52:53;;;;;;;2.40;2.00;;;21.20;99.60;;;;;;5073759;28;20055;-76
2021/07/12 04:55:19;;;;;;;3.88;2.58;;;21.10;99.60;;;;;;5073603;28;20033;-76
2021/07/12 04:57:46;;;;;;;2.90;2.45;;;21.20;99.60;;;;;;5073024;28;20021;-76
2021/07/12 05:00:12;;;;;;;4.70;2.40;;;21.20;99.60;;;;;;5073597;28;20016;-77
2021/07/12 05:02:41;;;;;;;4.80;2.35;;;21.10;99.50;;;;;;5072180;28;20523;-78
2021/07/12 05:05:08;;;;;;;3.22;2.47;;;21.20;99.60;;;;;;5073923;28;20112;-79
2021/07/12 05:07:34;;;;;;;4.40;2.50;;;21.20;99.60;;;;;;5073721;28;20024;-79
2021/07/12 05:10:00;;;;;;;4.47;2.45;;;21.10;99.50;;;;;;5073250;28;20035;-76
2021/07/12 05:12:25;;;;;;;2.97;2.28;;;21.20;99.50;;;;;;5071534;28;20032;-76
2021/07/12 05:14:51;;;;;;;7.47;2.47;;;21.10;99.80;;;;;;5073309;28;20033;-76
2021/07/12 05:17:17;;;;;;;3.30;2.63;;;21.10;99.50;;;;;;5071246;28;20032;-79
2021/07/12 05:19:42;;;;;;;3.35;2.30;;;21.10;99.50;;;;;;5073122;28;20031;-77
2021/07/12 05:22:08;;;;;;;3.50;2.28;;;21.20;99.50;;;;;;5071276;28;20020;-78
2021/07/12 05:24:34;;;;;;;3.58;2.55;;;21.10;99.50;;;;;;5072255;28;20029;-77
2021/07/12 05:27:00;;;;;;;3.03;2.20;;;21.10;99.50;;;;;;5072595;28;20025;-78
2021/07/12 05:29:25;;;;;;;3.00;2.17;;;21.10;99.50;;;;;;5072661;28;20073;-78
2021/07/12 05:31:51;;;;;;;4.75;2.35;;;21.10;99.40;;;;;;5072250;28;20021;-78
2021/07/12 05:34:17;;;;;;;5.10;2.38;;;21.10;99.40;;;;;;5072895;28;20495;-79
2021/07/12 05:36:44;;;;;;;3.03;2.40;;;21.10;99.40;;;;;;5072361;28;20036;-78
2021/07/12 05:39:09;;;;;;;4.28;2.17;;;21.10;99.40;;;;;;5070819;28;20044;-78
2021/07/12 05:41:35;;;;;;;3.72;2.35;;;21.10;99.40;;;;;;5072565;28;20106;-78
2021/07/12 05:44:00;;;;;;;3.42;2.40;;;21.10;99.40;;;;;;5070890;28;20033;-76
2021/07/12 05:46:26;;;;;;;4.05;2.38;;;21.10;99.40;;;;;;5072199;28;20107;-76
2021/07/12 05:48:51;;;;;;;2.72;2.00;;;21.10;99.40;;;;;;5070990;28;20481;-75
2021/07/12 05:51:17;;;;;;;4.20;2.58;;;21.10;99.40;;;;;;5071737;28;20528;-76
2021/07/12 05:53:43;;;;;;;3.60;2.15;;;21.10;99.40;;;;;;5071015;28;20040;-75
2021/07/12 05:56:08;;;;;;;3.95;2.22;;;21.10;99.40;;;;;;5072334;28;20103;-77
2021/07/12 05:58:34;;;;;;;2.95;2.10;;;21.10;99.40;;;;;;5072723;28;20031;-76
2021/07/12 06:01:00;;;;;;;3.88;2.22;;;21.10;99.40;;;;;;5071701;28;20021;-76
2021/07/12 06:03:25;;;;;;;3.50;2.22;;;21.10;99.40;;;;;;5071213;28;20059;-79
2021/07/12 06:05:51;;;;;;;3.45;2.20;;;21.10;99.40;;;;;;5072056;28;20055;-79
2021/07/12 06:08:17;;;;;;;2.30;1.77;;;21.10;99.40;;;;;;5072214;28;20031;-79
2021/07/12 06:10:42;;;;;;;3.50;1.88;;;21.10;99.30;;;;;;5069773;28;20052;-77
2021/07/12 06:13:08;;;;;;;3.90;2.20;;;21.10;99.40;;;;;;5072112;28;20020;-75
2021/07/12 06:15:34;;;;;;;4.32;2.33;;;21.10;99.40;;;;;;5075928;28;20036;-75
2021/07/12 06:17:59;;;;;;;3.55;2.00;;;21.10;99.40;;;;;;5092340;28;20028;-76
2021/07/12 06:20:25;;;;;;;3.65;2.17;;;21.10;99.40;;;;;;5092334;28;20020;-77
2021/07/12 06:22:51;;;;;;;3.90;2.45;;;21.10;99.40;;;;;;5084544;28;20025;-78
2021/07/12 06:25:20;;;;;;;3.35;2.30;;;21.10;99.40;;;;;;5074613;28;20081;-78
2021/07/12 06:27:47;;;;;;;3.22;2.42;;;21.10;99.40;;;;;;5071699;28;20468;-79
2021/07/12 06:30:14;;;;;;;4.50;2.67;;;21.10;99.40;;;;;;5071641;28;20027;-76
2021/07/12 06:32:40;;;;;;;3.35;2.40;;;21.10;99.40;;;;;;5068814;28;20024;-77
2021/07/12 06:35:06;;;;;;;2.78;1.95;;;21.10;99.30;;;;;;5071726;28;20032;-78
2021/07/12 06:37:32;;;;;;;3.88;2.03;;;21.10;99.30;;;;;;5072484;28;20031;-79
2021/07/12 06:39:58;;;;;;;2.47;1.90;;;21.10;99.30;;;;;;5072002;28;20040;-77
2021/07/12 06:42:24;;;;;;;3.20;2.10;;;21.10;99.30;;;;;;5071025;28;20527;-77
2021/07/12 06:44:50;;;;;;;3.25;2.00;;;21.10;99.30;;;;;;5071652;28;20028;-77
2021/07/12 06:47:16;;;;;;;4.45;2.47;;;21.10;99.30;;;;;;5070959;28;20036;-75
2021/07/12 06:49:42;;;;;;;3.10;2.05;;;21.10;99.30;;;;;;5071310;28;20029;-77
2021/07/12 06:52:07;;;;;;;5.35;2.33;;;21.10;99.30;;;;;;5071287;28;20111;-78
2021/07/12 06:54:33;;;;;;;3.97;1.98;;;21.10;99.30;;;;;;5071990;28;20121;-78
2021/07/12 06:56:59;;;;;;;3.40;2.17;;;21.10;99.30;;;;;;5071539;28;20037;-76
2021/07/12 06:59:24;;;;;;;3.70;2.00;;;21.10;99.30;;;;;;5071076;28;20017;-77
2021/07/12 07:01:50;;;;;;;4.63;2.60;;;21.10;99.30;;;;;;5070938;28;20078;-77
2021/07/12 07:04:16;;;;;;;4.35;2.13;;;21.10;99.30;;;;;;5071764;28;20055;-78
2021/07/12 07:06:41;;;;;;;6.63;2.38;;;21.10;99.30;;;;;;5070153;28;20056;-76
2021/07/12 07:09:07;;;;;;;4.57;1.75;;;21.10;99.30;;;;;;5071716;28;20040;-76
2021/07/12 07:11:34;;;;;;;4.15;1.98;;;21.10;99.30;;;;;;5071457;28;20025;-77
2021/07/12 07:14:00;;;;;;;2.55;1.90;;;21.10;99.30;;;;;;5070773;28;20032;-77
2021/07/12 07:16:26;;;;;;;5.35;1.83;;;21.10;99.30;;;;;;5071122;28;20019;-76
2021/07/12 07:18:52;;;;;;;4.30;2.40;;;21.10;99.30;;;;;;5055255;28;20515;-79
2021/07/12 07:21:18;;;;;;;2.83;1.83;;;21.10;99.30;;;;;;5051075;28;20028;-80
2021/07/12 07:23:45;;;;;;;4.13;2.28;;;21.10;99.40;;;;;;5069017;28;20476;-79
2021/07/12 07:26:11;;;;;;;4.80;2.10;;;21.10;99.40;;;;;;5068910;28;20017;-77
2021/07/12 07:28:37;;;;;;;6.63;2.70;;;21.10;99.50;;;;;;5071310;28;20020;-80
2021/07/12 07:31:03;;;;;;;5.20;2.15;;;21.10;99.60;;;;;;5071340;28;20028;-78
2021/07/12 07:33:29;;;;;;;9.07;2.28;;;21.10;99.70;;;;;;5069536;28;20032;-81
2021/07/12 07:35:59;;;;;;;11.40;2.80;;;21.10;99.70;;;;;;5071057;28;20521;-78
2021/07/12 07:38:25;;;;;;;9.75;6.55;;;21.10;99.70;;;;;;5070571;28;20025;-78
2021/07/12 07:40:51;;;;;;;11.57;6.90;;;21.20;99.80;;;;;;5070329;28;20031;-77
2021/07/12 07:43:18;;;;;;;7.00;4.20;;;21.20;99.90;;;;;;5070445;28;20515;-78
2021/07/12 07:45:45;;;;;;;6.93;3.70;;;21.20;99.90;;;;;;5070803;28;20032;-78
2021/07/12 07:48:10;;;;;;;6.18;3.67;;;21.20;99.90;;;;;;5068850;28;20020;-79
2021/07/12 07:50:39;;;;;;;10.38;3.70;;;21.20;99.90;;;;;;5070690;28;20079;-78
2021/07/12 07:53:06;;;;;;;8.40;3.08;;;21.30;99.90;;;;;;5075685;28;20020;-79
2021/07/12 07:55:32;;;;;;;10.48;3.15;;;21.30;99.90;;;;;;5074261;28;20089;-82
2021/07/12 07:57:57;;;;;;;9.02;2.85;;;21.30;99.90;;;;;;5071357;28;20117;-80
2021/07/12 08:00:24;;;;;;;5.53;2.95;;;21.30;99.90;;;;;;5069391;28;20103;-77
2021/07/12 08:02:51;;;;;;;5.25;2.80;;;21.30;99.90;;;;;;5072674;28;20035;-79
2021/07/12 08:05:17;;;;;;;8.85;3.20;;;21.30;99.90;;;;;;5074181;28;20488;-75
2021/07/12 08:07:43;;;;;;;6.28;2.72;;;21.30;99.90;;;;;;5073521;28;20024;-77
2021/07/12 08:10:12;;;;;;;8.30;3.10;;;21.40;99.90;;;;;;5109129;27;20025;-78
2021/07/12 08:12:38;;;;;;;10.65;3.47;;;21.40;99.90;;;;;;5074670;28;20032;-75
2021/07/12 08:15:06;;;;;;;4.53;2.50;;;21.40;99.90;;;;;;5074485;28;20035;-76
2021/07/12 08:17:33;;;;;;;6.22;2.92;;;21.40;99.90;;;;;;5074088;28;20429;-76
2021/07/12 08:19:58;;;;;;;5.43;2.83;;;21.40;99.90;;;;;;5074435;28;20400;-76
2021/07/12 08:22:24;;;;;;;5.93;3.08;;;21.40;99.90;;;;;;5074092;28;20024;-78
2021/07/12 08:24:50;;;;;;;5.28;2.85;;;21.40;99.90;;;;;;5074369;28;20032;-77
2021/07/12 08:27:15;;;;;;;8.25;3.08;;;21.40;99.90;;;;;;5073886;28;20028;-78
2021/07/12 08:29:41;;;;;;;4.32;2.50;;;21.40;99.90;;;;;;5072729;28;20027;-79
2021/07/12 08:32:07;;;;;;;5.97;2.30;;;21.40;99.90;;;;;;5074573;28;20107;-78
2021/07/12 08:34:38;;;;;;;5.28;2.45;;;21.40;99.90;;;;;;5074018;28;20036;-78
2021/07/12 08:37:04;;;;;;;6.28;2.42;;;21.40;99.90;;;;;;5074366;28;20025;-76
2021/07/12 08:39:30;;;;;;;7.15;2.80;;;21.50;99.90;;;;;;5073668;28;20021;-77
2021/07/12 08:41:56;;;;;;;4.93;2.42;;;21.50;99.90;;;;;;5073886;28;20028;-76
2021/07/12 08:44:21;;;;;;;3.50;2.00;;;21.50;99.90;;;;;;5073721;28;20101;-79
2021/07/12 08:46:47;;;;;;;7.03;2.47;;;21.50;99.90;;;;;;5072562;28;20029;-76
2021/07/12 08:49:12;;;;;;;3.67;1.80;;;21.50;99.90;;;;;;5075814;28;20523;-78
2021/07/12 08:51:38;;;;;;;5.80;2.35;;;21.50;99.90;;;;;;5072481;28;20039;-76
2021/07/12 08:54:03;;;;;;;3.45;1.95;;;21.50;99.90;;;;;;5072663;28;20028;-76
2021/07/12 08:56:29;;;;;;;6.05;2.50;;;21.50;99.90;;;;;;5073591;28;20025;-75
2021/07/12 08:58:55;;;;;;;5.95;3.28;;;21.50;99.90;;;;;;5073414;28;20099;-78
2021/07/12 09:01:20;;;;;;;7.13;4.10;;;21.50;99.90;;;;;;5073433;28;20024;-80
2021/07/12 09:03:50;;;;;;;7.13;3.42;;;21.50;99.90;;;;;;5073791;28;20017;-79
2021/07/12 09:06:21;;;;;;;6.78;3.97;;;21.50;99.90;;;;;;5073459;28;20036;-78
2021/07/12 09:08:56;;;;;;;7.00;3.28;;;21.50;99.90;;;;;;5073490;28;20032;-78
2021/07/12 09:11:29;;;;;;;6.25;3.25;;;21.60;99.90;;;;;;5073142;28;20484;-76
2021/07/12 09:14:03;;;;;;;6.63;3.55;;;21.50;99.90;;;;;;5072542;28;20036;-77
2021/07/12 09:16:36;;;;;;;6.32;3.55;;;21.50;99.90;;;;;;5073315;28;20025;-78
2021/07/12 09:19:07;;;;;;;7.20;3.65;;;21.50;99.90;;;;;;5073382;28;20048;-78
2021/07/12 09:21:34;;;;;;;7.65;3.40;;;21.60;99.90;;;;;;5073148;28;20071;-76
2021/07/12 09:24:26;;;;;;;7.30;3.28;;;21.50;99.90;;;;;;5072102;28;20025;-78
2021/07/12 09:26:55;;;;;;;6.78;3.00;;;21.50;99.90;;;;;;5073124;28;20021;-77
2021/07/12 09:29:42;;;;;;;6.03;2.85;;;21.50;99.90;;;;;;5073097;28;20515;-78
2021/07/12 09:32:13;;;;;;;7.75;4.00;;;21.50;99.90;;;;;;5073153;28;20561;-75
2021/07/12 09:34:39;;;;;;;9.77;3.78;;;21.50;99.90;;;;;;5072988;28;20373;-78
2021/07/12 09:37:07;;;;;;;6.28;2.90;;;21.50;99.90;;;;;;5073442;28;20427;-78
2021/07/12 09:39:38;;;;;;;6.22;3.00;;;21.50;99.90;;;;;;5073138;28;20484;-79
2021/07/12 09:42:13;;;;;;;6.53;3.00;;;21.50;99.90;;;;;;5073172;28;20017;-78
2021/07/12 09:44:45;;;;;;;5.72;2.45;;;21.50;99.90;;;;;;5072609;28;20050;-77
2021/07/12 09:47:22;;;;;;;4.72;2.78;;;21.50;99.90;;;;;;5072684;28;20089;-78
2021/07/12 09:49:50;;;;;;;6.25;2.70;;;21.50;99.90;;;;;;5072800;28;20085;-78
2021/07/12 09:52:18;;;;;;;5.57;2.90;;;21.50;99.90;;;;;;5072563;28;20032;-79
2021/07/12 09:54:46;;;;;;;5.78;2.58;;;21.50;99.90;;;;;;5072793;28;20036;-78
2021/07/12 09:57:18;;;;;;;4.65;2.25;;;21.50;99.90;;;;;;5072329;28;20029;-78
2021/07/12 10:00:03;;;;;;;4.72;2.92;;;21.50;99.90;;;;;;5072706;28;20017;-81
2021/07/12 10:02:34;;;;;;;5.43;2.50;;;21.60;99.90;;;;;;5071973;28;20029;-82
2021/07/12 10:05:11;;;;;;;9.50;2.70;;;21.60;99.90;;;;;;5072567;28;20029;-82
2021/07/12 10:07:37;;;;;;;6.72;2.88;;;21.60;99.90;;;;;;5071070;28;20492;-80
2021/07/12 10:10:13;;;;;;;7.50;2.88;;;21.60;99.90;;;;;;5072639;28;20114;-78
2021/07/12 10:12:40;;;;;;;8.82;3.08;;;21.60;99.90;;;;;;5072255;28;20031;-77
2021/07/12 10:15:08;;;;;;;8.25;2.30;;;21.60;99.90;;;;;;5072425;28;20105;-77
2021/07/12 10:17:34;;;;;;;7.28;2.33;;;21.60;99.90;;;;;;5072311;28;20032;-79
2021/07/12 10:19:59;;;;;;;8.38;2.38;;;21.60;99.90;;;;;;5072179;28;20033;-78
2021/07/12 10:22:32;;;;;;;4.00;2.00;;;21.60;99.90;;;;;;5072017;28;20020;-78
2021/07/12 10:25:06;;;;;;;4.95;2.10;;;21.60;99.90;;;;;;5071873;28;20052;-75
2021/07/12 10:27:32;;;;;;;7.95;3.03;;;21.60;99.90;;;;;;5070732;28;20388;-77
2021/07/12 10:30:28;;;;;;;5.70;2.28;;;21.60;99.90;;;;;;5072005;28;20024;-77
2021/07/12 10:33:03;;;;;;;3.92;2.55;;;21.60;99.90;;;;;;5071844;28;20016;-77
2021/07/12 10:35:51;;;;;;;6.30;2.38;;;21.70;99.90;;;;;;5070085;28;20032;-76
2021/07/12 10:38:20;;;;;;;7.07;2.50;;;21.70;99.90;;;;;;5071596;28;20416;-77
2021/07/12 10:40:55;;;;;;;9.38;1.92;;;21.70;99.90;;;;;;5071460;28;20025;-77
2021/07/12 10:43:34;;;;;;;4.45;2.28;;;21.70;99.90;;;;;;5071593;28;20040;-74
2021/07/12 10:46:01;;;;;;;9.02;2.45;;;21.70;99.90;;;;;;5071706;28;20063;-76
2021/07/12 10:48:34;;;;;;;4.47;1.98;;;21.60;99.90;;;;;;5071438;28;20046;-75
2021/07/12 10:51:18;;;;;;;7.78;2.85;;;21.70;99.90;;;;;;5070177;28;20032;-75
2021/07/12 10:53:55;;;;;;;4.18;2.10;;;21.70;99.90;;;;;;5071553;28;20397;-74
2021/07/12 10:56:21;;;;;;;6.35;2.15;;;21.70;99.90;;;;;;5071325;28;20024;-74
2021/07/12 10:58:48;;;;;;;6.47;2.17;;;21.70;99.90;;;;;;5071591;28;20155;-74
2021/07/12 11:01:18;;;;;;;5.18;2.10;;;21.70;99.90;;;;;;5071380;28;20021;-76
2021/07/12 11:03:50;;;;;;;7.07;2.00;;;21.70;99.90;;;;;;5071163;28;20511;-74
2021/07/12 11:06:22;;;;;;;3.40;2.00;;;21.70;99.90;;;;;;5071198;28;20507;-74
2021/07/12 11:08:56;;;;;;;3.33;1.90;;;21.70;99.90;;;;;;5069995;28;20028;-74
2021/07/12 11:11:22;;;;;;;6.32;2.20;;;21.70;99.90;;;;;;5071014;28;20106;-75
2021/07/12 11:14:08;;;;;;;3.50;1.80;;;21.70;99.90;;;;;;5071024;28;20036;-74
2021/07/12 11:16:45;;;;;;;5.80;2.03;;;21.70;99.90;;;;;;5071527;28;20039;-75
2021/07/12 11:19:31;;;;;;;5.97;1.98;;;21.70;99.90;;;;;;5070867;28;20016;-76
2021/07/12 11:22:15;;;;;;;10.00;2.38;;;21.70;99.90;;;;;;5069827;28;20074;-75
2021/07/12 11:25:03;;;;;;;5.90;2.03;;;21.70;99.90;;;;;;5070889;28;20028;-75
2021/07/12 11:27:39;;;;;;;6.30;2.03;;;21.70;99.90;;;;;;5069480;28;20024;-75
2021/07/12 11:30:27;;;;;;;4.88;1.90;;;21.70;99.90;;;;;;5071403;28;20078;-74
2021/07/12 11:32:54;;;;;;;7.32;1.77;;;21.70;99.90;;;;;;5071319;28;20043;-76
2021/07/12 11:35:20;;;;;;;4.00;2.03;;;21.70;99.90;;;;;;5070819;28;20086;-75
2021/07/12 11:37:45;;;;;;;5.28;2.10;;;21.70;99.90;;;;;;5070514;28;20392;-74
2021/07/12 11:40:12;;;;;;;5.15;2.25;;;21.70;99.90;;;;;;5069496;28;20098;-74
2021/07/12 11:42:39;;;;;;;6.15;2.10;;;21.70;99.90;;;;;;5069818;28;20028;-74
2021/07/12 11:45:14;;;;;;;3.80;1.58;;;21.70;99.90;;;;;;5070594;28;20024;-76
2021/07/12 11:47:41;;;;;;;5.83;2.27;;;21.70;99.90;;;;;;5071229;28;20033;-76
2021/07/12 11:50:08;;;;;;;5.32;1.83;;;21.70;99.90;;;;;;5071228;28;20025;-74
2021/07/12 11:52:36;;;;;;;2.92;1.98;;;21.70;99.90;;;;;;5071330;28;20067;-78
2021/07/12 11:55:07;;;;;;;5.63;1.80;;;21.70;99.90;;;;;;5070640;28;20500;-75
2021/07/12 11:57:34;;;;;;;3.60;1.80;;;21.80;99.90;;;;;;5070953;28;20059;-75
2021/07/12 11:59:59;;;;;;;5.30;1.98;;;21.80;99.90;;;;;;5070688;28;20385;-75
2021/07/12 12:02:25;;;;;;;4.13;1.77;;;21.80;99.90;;;;;;5069868;28;20013;-75
2021/07/12 12:04:57;;;;;;;5.15;2.13;;;21.80;99.90;;;;;;5069672;28;20043;-74
2021/07/12 12:07:32;;;;;;;2.75;1.77;;;21.80;99.90;;;;;;5071078;28;20081;-75
2021/07/12 12:10:05;;;;;;;4.95;1.90;;;21.80;99.90;;;;;;5070802;28;20063;-75
2021/07/12 12:12:34;;;;;;;6.47;2.33;;;21.80;99.90;;;;;;5070177;28;20029;-74
2021/07/12 12:15:04;;;;;;;6.10;2.40;;;21.80;99.90;;;;;;5070695;28;20051;-74
2021/07/12 12:17:30;;;;;;;5.05;1.73;;;21.90;99.90;;;;;;5069024;28;20358;-75
2021/07/12 12:20:23;;;;;;;3.83;1.85;;;21.90;99.90;;;;;;5070821;28;20027;-75
2021/07/12 12:23:04;;;;;;;5.07;1.95;;;21.90;99.90;;;;;;5069854;28;20039;-76
2021/07/12 12:25:47;;;;;;;3.15;1.67;;;21.90;99.90;;;;;;5070383;28;20459;-76
2021/07/12 12:28:22;;;;;;;3.45;1.77;;;21.90;99.90;;;;;;5070427;28;20025;-77
2021/07/12 12:30:48;;;;;;;3.00;1.65;;;21.90;99.90;;;;;;5070369;28;20090;-76
2021/07/12 12:33:14;;;;;;;4.03;1.70;;;22.00;99.90;;;;;;5070275;28;20028;-77
2021/07/12 12:35:40;;;;;;;4.63;1.88;;;22.00;99.90;;;;;;5070577;28;20493;-74
2021/07/12 12:38:15;;;;;;;3.30;1.60;;;22.00;99.90;;;;;;5070923;28;20021;-75
2021/07/12 12:40:43;;;;;;;2.60;1.58;;;22.00;99.90;;;;;;5070618;28;20395;-75
2021/07/12 12:43:11;;;;;;;2.42;1.55;;;22.00;99.90;;;;;;5070397;28;20036;-76
2021/07/12 12:45:48;;;;;;;6.22;1.75;;;22.00;99.90;;;;;;5070872;28;20040;-75
2021/07/12 12:48:29;;;;;;;3.10;1.67;;;22.00;99.90;;;;;;5070429;28;20101;-74
2021/07/12 12:50:55;;;;;;;2.47;1.58;;;22.00;99.90;;;;;;5073965;28;20039;-74
2021/07/12 12:53:31;;;;;;;3.95;1.95;;;22.00;99.90;;;;;;5073584;28;20028;-75
2021/07/12 12:55:56;;;;;;;4.40;1.80;;;22.00;99.90;;;;;;5074079;28;20108;-75